Sunday, January 20, 2019, 2:05 AM EST
Back to Local

KAFN, Jaffrey Muni-silver Ranch

Location: Jaffrey, NH, United States Lat: 42.8
Local Time: 2:05 AM EST ( 7:05 GMT) Lon: -72
Time Zone: US/Eastern Elev: 1040 ft

Show me the last for .
Show Decoded

2019-01-20 01:52 METAR KAFN 200652Z AUTO VRB05KT 1/4SM +SN FZFG VV004 M08/M09 A2990 RMK AO2
                 SLP148 P0011 T10831094 =
2019-01-20 01:39 METAR KAFN 200639Z AUTO VRB06KT 1/4SM +SN FZFG VV005 M08/M10 A2992 RMK AO2 P0008
                 T10831100 =
2019-01-20 00:59 METAR KAFN 200559Z AUTO VRB05KT 3/4SM -SN BR VV009 M08/M09 A2995 RMK AO2 P0001
                 T10831094 =
2019-01-20 00:52 METAR KAFN 200552Z AUTO VRB05KT 3/4SM -SN BR VV010 M08/M09 A2996 RMK AO2 SLP167
                 P0004 60011 T10781089 11044 21078 58037 =
2019-01-20 00:23 METAR KAFN 200523Z AUTO VRB05G16KT 3/4SM -SN BR FEW008 OVC012 M07/M08 A2999 RMK
                 AO2 PRESFR P0002 T10671078 =
2019-01-19 23:52 METAR KAFN 200452Z AUTO 1SM -SN BR VV011 M06/M07 A3003 RMK AO2 SLP191 P0004
                 T10611072 410111061 =
2019-01-19 23:28 METAR KAFN 200428Z AUTO 00000KT 3/4SM -SN BR VV012 M06/M07 A3005 RMK AO2 P0002
                 T10561067 =
2019-01-19 23:13 METAR KAFN 200413Z AUTO VRB03KT 1SM -SN BR VV014 M06/M07 A3006 RMK AO2 P0001
                 T10561072 =
2019-01-19 22:52 METAR KAFN 200352Z AUTO VRB04KT 1 1/4SM -SN BR OVC015 M06/M07 A3007 RMK AO2
                 SLP203 P0002 T10561072 =
2019-01-19 22:48 METAR KAFN 200348Z AUTO 04004KT 1 1/2SM -SN BR OVC015 M06/M07 A3007 RMK AO2
                 P0001 =
2019-01-19 22:22 METAR KAFN 200322Z AUTO VRB03KT 1 1/4SM -SN BR OVC015 M06/M07 A3008 RMK AO2
                 P0001 T10561067 =
2019-01-19 22:07 METAR KAFN 200307Z AUTO VRB04KT 1 3/4SM -SN BR OVC011 M06/M07 A3008 RMK AO2
                 P0000 T10561067 =
2019-01-19 21:52 METAR KAFN 200252Z AUTO VRB05KT 2 1/2SM -SN BR OVC011 M06/M07 A3008 RMK AO2
                 SLP209 P0001 60001 T10561072 58021 =
2019-01-19 20:52 METAR KAFN 200152Z AUTO VRB05KT 4SM -SN BR BKN014 OVC036 M05/M07 A3011 RMK AO2
                 SLP220 P0000 T10501067 =
2019-01-19 20:20 METAR KAFN 200120Z AUTO VRB03KT 3SM -SN BR BKN013 OVC033 M05/M07 A3013 RMK AO2
                 P0000 T10501067 =
2019-01-19 20:15 METAR KAFN 200115Z AUTO 00000KT 2 1/2SM -SN BR SCT013 OVC033 M05/M07 A3014 RMK
                 AO2 P0000 T10501067 =
2019-01-19 20:08 METAR KAFN 200108Z AUTO 00000KT 3SM -SN BR SCT016 SCT021 OVC031 M05/M07 A3014
                 RMK AO2 P0000 T10501067 =
2019-01-19 20:00 METAR KAFN 200100Z AUTO 00000KT 2 1/2SM -SN BR FEW013 BKN019 OVC032 M05/M07
                 A3014 RMK AO2 P0000 T10501072 =
2019-01-19 19:52 METAR KAFN 200052Z AUTO VRB03KT 1 3/4SM -SN FEW014 BKN019 OVC032 M05/M08 A3014
                 RMK AO2 SNB36 SLP229 P0000 T10501078 =
2019-01-19 19:45 METAR KAFN 200045Z AUTO VRB03KT 1 3/4SM -SN OVC019 M05/M08 A3015 RMK AO2 SNB36
                 P0000 T10501083 =
2019-01-19 18:52 METAR KAFN 192352Z AUTO VRB03KT 10SM OVC020 M04/M10 A3015 RMK AO2 SLP231
                 T10441100 11028 21044 55012 =
2019-01-19 17:52 METAR KAFN 192252Z AUTO VRB03KT 10SM BKN023 OVC041 M04/M11 A3014 RMK AO2 PRESFR
                 SLP226 T10441106 =
2019-01-19 17:45 METAR KAFN 192245Z AUTO 00000KT 10SM BKN024 OVC041 M04/M11 A3015 RMK AO2
                 T10441106 =
2019-01-19 16:52 METAR KAFN 192152Z AUTO 00000KT 10SM OVC036 M04/M10 A3019 RMK AO2 SLP244
                 T10391100 =
2019-01-19 15:52 METAR KAFN 192052Z AUTO VRB03KT 10SM OVC035 M03/M10 A3019 RMK AO2 SLP242
                 T10331100 53001 =
2019-01-19 14:52 METAR KAFN 191952Z AUTO 08003KT 10SM OVC034 M03/M10 A3016 RMK AO2 SLP233
                 T10281100 =
2019-01-19 13:52 METAR KAFN 191852Z AUTO 20004KT 10SM OVC037 M03/M10 A3016 RMK AO2 SLP232
                 T10331100 =
2019-01-19 12:52 METAR KAFN 191752Z AUTO 00000KT 10SM BKN040 OVC075 M03/M11 A3018 RMK AO2 PRESFR
                 SLP240 T10331106 11033 21061 58023 =
2019-01-19 11:52 METAR KAFN 191652Z AUTO 00000KT 10SM FEW080 OVC100 M04/M10 A3022 RMK AO2 SLP254
                 T10391100 =
2019-01-19 10:52 METAR KAFN 191552Z AUTO 00000KT 10SM OVC085 M04/M10 A3025 RMK AO2 SLP263
                 T10441100 =
2019-01-19 09:52 METAR KAFN 191452Z AUTO 00000KT 10SM OVC085 M05/M10 A3025 RMK AO2 SLP264
                 T10501100 53019 =
2019-01-19 08:52 METAR KAFN 191352Z AUTO VRB04KT 10SM OVC110 M06/M10 A3022 RMK AO2 SLP253
                 T10611100 =
2019-01-19 07:52 METAR KAFN 191252Z AUTO VRB04KT 10SM OVC120 M06/M09 A3020 RMK AO2 SLP247
                 T10611094 =
2019-01-19 06:52 METAR KAFN 191152Z AUTO 00000KT 10SM SCT120 M06/M09 A3019 RMK AO2 SLP245
                 T10611089 11017 21061 53023 =
2019-01-19 05:52 METAR KAFN 191052Z AUTO 02004KT 10SM SCT036 M06/M08 A3017 RMK AO2 SLP235
                 T10561083 =
2019-01-19 04:52 METAR KAFN 190952Z AUTO 36003KT 10SM OVC036 M04/M08 A3015 RMK AO2 SLP227
                 T10391083 =
2019-01-19 03:52 METAR KAFN 190852Z AUTO 00000KT 10SM SCT038 M04/M09 A3013 RMK AO2 SLP220
                 T10391089 51019 =
2019-01-19 02:52 METAR KAFN 190752Z AUTO 00000KT 10SM SCT039 M03/M09 A3012 RMK AO2 SLP216
                 T10281089 =

Support USWX by starting your Amazon purchase here.